Terminal Aerodrome Forecast
Issued by NWS

Home | Current Version | Previous Version | Text Only | Print | Product List | Glossary On
Versions: 1 2 3 4 5 6 7 8 9 10 11 12 13 14 15 16
000
FTUS45 KPSR 300500
TAFBLH
TAF
KBLH 300535Z 3006/3106 24005KT P6SM VCSH SCT040 OVC080
     FM300900 34005KT P6SM -RA SCT030 OVC040
     FM301200 VRB05KT 5SM -RA OVC010
     FM302000 35008KT 6SM -RA BR BKN010 OVC025=

USA.gov is the U.S. government's official web portal to all federal, state and local government web resources and services.